DAFH

Hassi R'Mel Airport

Algeria
METAR DAFH 151800Z 02010KT CAVOK 09/01 Q1025
Observed Flight Rules
Dec-15 @ 18:00 UTC (12 hours ago) Visual Flight Rules
Wind Visibility Clouds
20° at 10 knots 10,000+ meters
  • Clear skies
Temperatures Readings
Current 9°C / 48°F
Dewpoint 1°C / 34°F
Humidity 58%
Altimeter 30.27" Hg
Pressure 1025 hPa
Elevation 774
METAR DAFH 151800Z 02010KT CAVOK 09/01 Q1025
Observed Flight Rules
Dec-15 @ 18:00 UTC
(12 hours ago)
VFR
Wind Visibility
20° at 10 knots 10,000+ meters
Clouds
  • Clear skies
Temperature Dewpoint
9°C / 48°F 1°C / 34°F
Humidity Altimeter Pressure
58% 30.27" Hg 1025 hPa